createdAt,value
2019-05-23T00:00:09.872Z,6.93
2019-05-23T00:05:11.318Z,10.97
2019-05-23T00:10:11.387Z,9.57
2019-05-23T00:15:18.365Z,7.95
2019-05-23T00:20:15.799Z,8.73
2019-05-23T00:25:15.051Z,8.80
2019-05-23T00:30:15.435Z,11.30
2019-05-23T00:35:13.216Z,8.67
2019-05-23T00:40:12.074Z,8.77
2019-05-23T00:45:12.399Z,6.70
2019-05-23T00:50:10.308Z,4.23
2019-05-23T00:55:09.895Z,3.13
2019-05-23T01:00:11.570Z,2.80
2019-05-23T01:05:10.979Z,3.07
2019-05-23T01:10:10.978Z,2.27
2019-05-23T01:15:10.404Z,1.90
2019-05-23T01:20:11.526Z,1.70
2019-05-23T01:25:11.541Z,1.80
2019-05-23T01:30:12.178Z,1.27
2019-05-23T01:40:32.056Z,1.17
2019-05-23T01:45:29.313Z,1.53
2019-05-23T01:50:28.655Z,1.50
2019-05-23T01:55:27.095Z,1.73
2019-05-23T02:00:29.197Z,1.50
2019-05-23T02:05:31.989Z,1.20
2019-05-23T02:10:41.609Z,1.87
2019-05-23T02:15:43.084Z,1.30
2019-05-23T02:21:10.582Z,1.73
2019-05-23T02:26:28.744Z,1.43
2019-05-23T02:31:37.932Z,2.30
2019-05-23T02:36:39.594Z,2.57
2019-05-23T02:41:39.298Z,2.17
2019-05-23T02:46:41.671Z,1.47
2019-05-23T02:51:43.426Z,1.57
2019-05-23T02:56:41.189Z,1.60
2019-05-23T03:02:05.154Z,2.17
2019-05-23T03:07:03.218Z,2.00
2019-05-23T03:12:01.905Z,1.57
2019-05-23T03:17:02.338Z,1.73
2019-05-23T03:22:27.646Z,2.07
2019-05-23T03:27:34.005Z,1.33
2019-05-23T03:32:46.776Z,1.60
2019-05-23T03:37:47.723Z,1.57
2019-05-23T03:42:47.024Z,1.77
2019-05-23T03:47:53.173Z,1.57
2019-05-23T03:52:49.908Z,3.10
2019-05-23T03:57:51.191Z,2.33
2019-05-23T04:02:51.199Z,3.13
2019-05-23T04:07:51.579Z,2.57
2019-05-23T04:12:51.393Z,2.40
2019-05-23T04:17:55.019Z,1.97
2019-05-23T04:36:32.962Z,1.50
2019-05-23T04:41:20.959Z,1.70
2019-05-23T04:52:16.549Z,1.40
2019-05-23T04:57:18.916Z,1.50
2019-05-23T05:02:26.130Z,1.40
2019-05-23T05:07:30.406Z,1.10
2019-05-23T05:12:49.859Z,0.87
2019-05-23T05:18:48.743Z,0.90
2019-05-23T06:06:02.365Z,0.47
2019-05-23T06:11:08.633Z,0.40
2019-05-23T06:16:17.810Z,0.60
2019-05-23T06:21:17.947Z,0.90
2019-05-23T06:26:16.280Z,0.50
2019-05-23T06:31:19.496Z,0.90
2019-05-23T06:36:17.278Z,1.43
2019-05-23T06:41:22.076Z,1.20
2019-05-23T06:46:21.965Z,1.77
2019-05-23T06:51:19.288Z,2.30
2019-05-23T06:56:17.315Z,1.53
2019-05-23T07:01:14.685Z,0.90
2019-05-23T07:06:29.694Z,1.00
2019-05-23T07:11:32.663Z,0.80
2019-05-23T07:16:29.839Z,1.67
2019-05-23T07:21:41.293Z,2.07
2019-05-23T07:26:45.278Z,2.47
2019-05-23T07:31:48.249Z,1.60
2019-05-23T07:37:18.081Z,1.00
2019-05-23T07:42:33.229Z,1.73
2019-05-23T07:47:46.827Z,2.20
2019-05-23T07:53:23.381Z,0.97
2019-05-23T08:04:19.684Z,0.50
2019-05-23T08:08:25.161Z,1.40
2019-05-23T08:13:42.887Z,1.10
2019-05-23T08:18:48.284Z,1.50
2019-05-23T08:23:54.035Z,2.17
2019-05-23T08:29:22.219Z,2.37
2019-05-23T08:33:58.341Z,1.57
2019-05-23T08:38:57.676Z,0.87
2019-05-23T08:43:57.902Z,0.70
2019-05-23T08:48:58.275Z,1.00
2019-05-23T08:53:58.175Z,0.70
2019-05-23T08:59:04.313Z,2.13
2019-05-23T09:04:03.610Z,0.60
2019-05-23T09:09:28.597Z,0.97
2019-05-23T09:14:12.654Z,0.40
2019-05-23T09:19:09.716Z,0.60
2019-05-23T09:24:08.024Z,0.40
2019-05-23T09:29:06.856Z,0.40
2019-05-23T09:34:05.566Z,0.30
2019-05-23T09:39:06.683Z,0.40
2019-05-23T09:44:04.128Z,0.40
2019-05-23T09:49:04.915Z,0.37
2019-05-23T09:54:02.032Z,0.60
2019-05-23T09:59:01.017Z,0.40
2019-05-23T10:04:01.487Z,0.73
2019-05-23T10:09:07.131Z,0.53
2019-05-23T10:14:08.550Z,0.70
2019-05-23T10:19:07.200Z,0.70
2019-05-23T10:24:08.548Z,0.40
2019-05-23T10:29:08.972Z,0.83
2019-05-23T10:34:10.128Z,0.80
2019-05-23T10:39:14.968Z,0.57
2019-05-23T10:44:14.189Z,0.50
2019-05-23T10:49:12.415Z,0.60
2019-05-23T10:54:10.089Z,0.83
2019-05-23T10:59:10.195Z,0.63
2019-05-23T11:04:08.530Z,0.50
2019-05-23T11:09:15.033Z,0.50
2019-05-23T11:14:12.356Z,0.30
2019-05-23T11:19:09.557Z,0.70
2019-05-23T11:24:20.145Z,0.70
2019-05-23T11:29:19.830Z,0.40
2019-05-23T11:34:23.650Z,0.43
2019-05-23T11:39:22.812Z,0.40
2019-05-23T11:44:22.141Z,0.30
2019-05-23T11:49:22.855Z,0.70
2019-05-23T12:05:11.557Z,0.57
2019-05-23T12:10:13.553Z,0.70
2019-05-23T12:15:13.923Z,0.10
2019-05-23T12:20:11.241Z,0.30
2019-05-23T12:25:21.333Z,0.20
2019-05-23T12:30:14.818Z,0.20
2019-05-23T12:35:12.402Z,0.40
2019-05-23T12:40:11.734Z,0.30
2019-05-23T12:45:12.791Z,0.90
2019-05-23T12:50:14.108Z,0.37
2019-05-23T12:55:13.107Z,1.40
2019-05-23T13:05:51.422Z,1.50
2019-05-23T13:10:50.644Z,1.50
2019-05-23T13:15:53.565Z,0.50
2019-05-23T13:20:52.473Z,0.40
2019-05-23T13:26:40.773Z,0.70
2019-05-23T13:31:41.122Z,0.50
2019-05-23T13:36:48.538Z,0.73
2019-05-23T13:42:09.173Z,1.57
2019-05-23T13:47:41.344Z,1.43
2019-05-23T13:52:24.894Z,1.07
2019-05-23T13:57:36.755Z,1.00
2019-05-23T14:02:46.105Z,1.23
2019-05-23T17:21:55.903Z,3.20
2019-05-23T17:27:03.208Z,4.20
2019-05-23T17:32:06.158Z,3.85
2019-05-23T17:42:25.125Z,4.10
2019-05-23T17:47:42.210Z,3.30
2019-05-23T17:52:42.421Z,3.13
2019-05-23T17:57:43.416Z,3.23
2019-05-23T18:02:41.227Z,3.50
2019-05-23T18:07:39.371Z,3.00
2019-05-23T18:12:43.800Z,3.57
2019-05-23T18:18:05.441Z,3.17
2019-05-23T18:23:43.895Z,4.90
2019-05-23T18:28:58.529Z,4.63
2019-05-23T18:34:06.417Z,3.40
2019-05-23T18:39:26.542Z,4.13
2019-05-23T18:44:27.891Z,3.77
2019-05-23T18:49:32.959Z,4.10
2019-05-23T18:54:33.848Z,5.47
2019-05-23T18:59:36.251Z,4.53
2019-05-23T19:04:33.695Z,5.60
2019-05-23T19:09:31.746Z,8.03
2019-05-23T19:14:29.272Z,5.97
2019-05-23T19:19:27.487Z,5.17
2019-05-23T19:24:30.749Z,4.97
2019-05-23T19:29:28.687Z,3.83
2019-05-23T19:34:27.788Z,5.00
2019-05-23T19:39:26.284Z,5.63
2019-05-23T19:44:24.180Z,6.73
2019-05-23T19:49:22.041Z,6.73
2019-05-23T19:54:20.786Z,6.30
2019-05-23T19:59:23.855Z,7.10
2019-05-23T20:04:31.218Z,5.80
2019-05-23T20:09:28.698Z,7.00
2019-05-23T20:14:26.068Z,7.83
2019-05-23T20:19:23.898Z,6.40
2019-05-23T20:24:21.581Z,6.40
2019-05-23T20:29:22.209Z,7.00
2019-05-23T20:34:19.962Z,6.67
2019-05-23T20:39:21.586Z,5.63
2019-05-23T20:44:21.935Z,7.73
2019-05-23T20:49:31.931Z,6.07
2019-05-23T20:54:34.776Z,6.73
2019-05-23T20:59:49.714Z,6.57
2019-05-23T21:04:55.525Z,6.10
2019-05-23T21:09:54.363Z,5.87
2019-05-23T21:21:26.186Z,6.67
2019-05-23T21:26:24.880Z,6.10
2019-05-23T21:31:25.216Z,7.73
2019-05-23T21:36:26.920Z,6.60
2019-05-23T21:41:27.637Z,6.70
2019-05-23T21:46:26.361Z,6.50
2019-05-23T21:51:23.623Z,5.17
2019-05-23T21:56:21.174Z,5.10
2019-05-23T22:01:22.619Z,6.20
2019-05-23T22:06:45.901Z,4.53
2019-05-23T22:13:21.066Z,4.47
2019-05-23T22:40:39.960Z,5.37
2019-05-23T22:45:51.694Z,4.50
2019-05-23T22:50:55.226Z,4.33
2019-05-23T23:01:38.079Z,3.93
2019-05-23T23:06:41.689Z,4.53
2019-05-23T23:11:43.083Z,4.13
2019-05-23T23:23:56.331Z,3.77
2019-05-23T23:34:14.767Z,3.70
2019-05-23T23:39:35.972Z,3.73
2019-05-23T23:50:08.058Z,2.90
2019-05-23T23:55:29.670Z,2.60
